createdAt,value
2022-12-16T00:02:05.661Z,28.40
2022-12-16T00:05:10.662Z,31.67
2022-12-16T00:08:15.665Z,30.25
2022-12-16T00:11:21.023Z,30.05
2022-12-16T00:14:27.483Z,24.70
2022-12-16T00:17:32.197Z,29.23
2022-12-16T00:20:36.766Z,28.80
2022-12-16T00:23:41.907Z,29.88
2022-12-16T00:26:46.696Z,30.65
2022-12-16T00:29:51.472Z,29.92
2022-12-16T00:32:56.247Z,32.47
2022-12-16T00:36:00.880Z,28.63
2022-12-16T00:39:05.704Z,30.25
2022-12-16T00:42:10.334Z,30.67
2022-12-16T00:45:15.125Z,28.10
2022-12-16T00:48:23.222Z,27.45
2022-12-16T00:51:28.150Z,27.92
2022-12-16T00:54:32.945Z,29.67
2022-12-16T00:57:37.293Z,28.35
2022-12-16T01:00:41.813Z,30.10
2022-12-16T01:03:46.693Z,29.35
2022-12-16T01:06:51.748Z,27.80
2022-12-16T01:09:56.961Z,29.83
2022-12-16T01:13:01.948Z,27.60
2022-12-16T01:16:06.847Z,30.17
2022-12-16T01:19:11.473Z,29.45
2022-12-16T01:22:16.393Z,29.40
2022-12-16T01:25:21.186Z,29.90
2022-12-16T01:28:27.100Z,25.73
2022-12-16T01:31:31.980Z,33.10
2022-12-16T01:34:36.373Z,26.35
2022-12-16T01:37:40.794Z,30.08
2022-12-16T01:40:45.070Z,28.23
2022-12-16T01:43:49.789Z,29.40
2022-12-16T01:47:03.188Z,26.95
2022-12-16T01:50:14.373Z,30.45
2022-12-16T01:53:19.400Z,29.17
2022-12-16T01:56:27.591Z,29.23
2022-12-16T01:59:34.117Z,28.63
2022-12-16T02:02:39.010Z,27.60
2022-12-16T02:05:45.905Z,30.42
2022-12-16T02:08:57.584Z,28.70
2022-12-16T02:12:45.256Z,31.52
2022-12-16T02:16:05.828Z,30.65
2022-12-16T02:19:27.372Z,27.52
2022-12-16T02:23:05.142Z,30.75
2022-12-16T02:26:53.567Z,25.00
2022-12-16T02:30:51.972Z,30.45
2022-12-16T02:34:10.473Z,27.42
2022-12-16T02:37:30.412Z,29.13
2022-12-16T02:40:45.155Z,30.52
2022-12-16T02:44:03.996Z,27.08
2022-12-16T02:47:08.606Z,25.85
2022-12-16T02:50:34.658Z,28.50
2022-12-16T02:53:42.112Z,30.70
2022-12-16T02:57:15.471Z,26.67
2022-12-16T03:00:23.501Z,32.88
2022-12-16T03:03:49.944Z,27.27
2022-12-16T03:06:56.638Z,27.10
2022-12-16T03:10:06.317Z,30.65
2022-12-16T03:13:13.029Z,26.95
2022-12-16T03:16:22.913Z,27.67
2022-12-16T03:19:28.162Z,28.75
2022-12-16T03:22:37.952Z,27.60
2022-12-16T03:25:45.544Z,28.08
2022-12-16T03:29:05.867Z,26.13
2022-12-16T03:32:18.437Z,27.70
2022-12-16T03:35:39.441Z,31.33
2022-12-16T03:38:46.654Z,29.15
2022-12-16T03:41:54.392Z,26.65
2022-12-16T03:44:59.092Z,25.42
2022-12-16T03:48:06.363Z,28.10
2022-12-16T03:51:11.203Z,28.98
2022-12-16T03:54:15.775Z,31.15
2022-12-16T03:57:20.609Z,30.80
2022-12-16T04:00:26.184Z,31.27
2022-12-16T04:03:31.083Z,28.33
2022-12-16T04:06:36.095Z,29.35
2022-12-16T04:09:40.785Z,32.67
2022-12-16T04:13:03.857Z,36.85
2022-12-16T04:16:35.880Z,38.47
2022-12-16T04:19:59.156Z,35.63
2022-12-16T04:23:23.674Z,37.90
2022-12-16T04:26:28.227Z,39.17
2022-12-16T04:29:33.664Z,36.20
2022-12-16T04:32:57.569Z,35.85
2022-12-16T04:36:20.740Z,35.15
2022-12-16T04:40:03.455Z,37.13
2022-12-16T04:43:26.837Z,34.55
2022-12-16T04:46:50.680Z,37.53
2022-12-16T04:50:13.628Z,35.70
2022-12-16T04:53:36.320Z,38.50
2022-12-16T04:56:58.993Z,36.20
2022-12-16T05:00:23.721Z,34.75
2022-12-16T05:03:46.898Z,36.28
2022-12-16T05:07:09.661Z,39.50
2022-12-16T05:10:32.316Z,40.47
2022-12-16T05:13:55.069Z,33.55
2022-12-16T05:17:18.083Z,36.35
2022-12-16T05:20:40.896Z,34.22
2022-12-16T05:24:04.128Z,33.53
2022-12-16T05:27:27.086Z,31.00
2022-12-16T05:30:49.872Z,35.97
2022-12-16T05:34:13.256Z,37.28
2022-12-16T05:37:35.962Z,32.80
2022-12-16T05:40:58.868Z,29.25
2022-12-16T05:44:27.093Z,31.35
2022-12-16T05:47:54.437Z,37.13
2022-12-16T05:51:36.971Z,30.13
2022-12-16T05:54:59.767Z,27.95
2022-12-16T05:58:22.894Z,28.10
2022-12-16T06:01:45.961Z,29.90
2022-12-16T06:05:08.826Z,30.77
2022-12-16T06:08:31.435Z,28.98
2022-12-16T06:11:54.424Z,33.25
2022-12-16T06:15:17.090Z,28.38
2022-12-16T06:18:39.515Z,29.92
2022-12-16T06:22:02.377Z,34.70
2022-12-16T06:25:25.797Z,31.75
2022-12-16T06:28:48.734Z,30.63
2022-12-16T06:32:11.720Z,30.02
2022-12-16T06:35:34.843Z,30.75
2022-12-16T06:38:57.848Z,33.75
2022-12-16T06:42:20.528Z,32.17
2022-12-16T06:45:44.136Z,32.25
2022-12-16T06:49:23.979Z,29.45
2022-12-16T06:52:47.230Z,31.92
2022-12-16T06:56:10.534Z,30.77
2022-12-16T06:59:33.307Z,30.58
2022-12-16T07:02:56.078Z,31.05
2022-12-16T07:06:19.253Z,27.63
2022-12-16T07:09:42.147Z,28.88
2022-12-16T07:13:05.078Z,28.15
2022-12-16T07:16:27.975Z,29.48
2022-12-16T07:19:50.795Z,26.08
2022-12-16T07:23:19.504Z,27.02
2022-12-16T07:26:56.402Z,28.17
2022-12-16T07:30:20.969Z,28.15
2022-12-16T07:33:43.960Z,33.22
2022-12-16T07:37:07.273Z,31.90
2022-12-16T07:40:32.597Z,30.58
2022-12-16T07:43:55.019Z,29.08
2022-12-16T07:47:19.605Z,32.25
2022-12-16T07:50:42.496Z,34.80
2022-12-16T07:54:05.286Z,29.15
2022-12-16T07:57:28.106Z,28.75
2022-12-16T08:00:50.650Z,33.42
2022-12-16T08:04:13.926Z,28.92
2022-12-16T08:07:36.829Z,22.17
2022-12-16T08:11:00.077Z,23.08
2022-12-16T08:14:22.923Z,22.85
2022-12-16T08:17:45.802Z,17.67
2022-12-16T08:21:09.576Z,16.75
2022-12-16T08:24:32.380Z,19.35
2022-12-16T08:27:56.226Z,18.23
2022-12-16T08:31:19.798Z,21.65
2022-12-16T08:34:42.895Z,20.03
2022-12-16T08:38:12.256Z,19.48
2022-12-16T08:41:37.190Z,18.05
2022-12-16T08:45:00.366Z,17.52
2022-12-16T08:48:24.062Z,17.17
2022-12-16T08:51:47.158Z,17.37
2022-12-16T08:55:10.462Z,14.68
2022-12-16T08:58:33.671Z,14.57
2022-12-16T09:01:56.794Z,14.05
2022-12-16T09:05:21.339Z,16.27
2022-12-16T09:08:43.950Z,13.43
2022-12-16T09:12:06.736Z,14.52
2022-12-16T09:15:29.804Z,12.70
2022-12-16T09:18:53.285Z,14.35
2022-12-16T09:25:41.135Z,13.18
2022-12-16T09:29:04.298Z,11.90
2022-12-16T09:32:27.401Z,12.02
2022-12-16T09:35:51.127Z,15.43
2022-12-16T09:39:14.296Z,15.15
2022-12-16T09:42:55.622Z,14.73
2022-12-16T09:46:53.620Z,12.50
2022-12-16T09:50:16.947Z,11.02
2022-12-16T09:53:41.891Z,13.45
2022-12-16T09:57:06.199Z,13.32
2022-12-16T10:00:41.497Z,11.82
2022-12-16T10:04:05.592Z,13.80
2022-12-16T10:11:27.623Z,12.95
2022-12-16T10:14:59.220Z,13.63
2022-12-16T10:18:36.523Z,16.23
2022-12-16T10:22:31.320Z,14.40
2022-12-16T10:26:04.104Z,15.90
2022-12-16T10:29:41.538Z,15.95
2022-12-16T10:33:10.449Z,15.95
2022-12-16T10:36:40.663Z,14.23
2022-12-16T10:40:14.186Z,12.13
2022-12-16T10:43:52.345Z,15.13
2022-12-16T10:47:18.229Z,15.30
2022-12-16T10:50:41.225Z,16.92
2022-12-16T10:54:09.933Z,15.98
2022-12-16T10:58:14.549Z,14.80
2022-12-16T11:01:46.576Z,15.93
2022-12-16T11:05:09.736Z,12.65
2022-12-16T11:08:49.062Z,14.90
2022-12-16T11:12:11.821Z,13.70
2022-12-16T11:15:52.478Z,13.18
2022-12-16T11:19:19.356Z,14.60
2022-12-16T11:22:42.911Z,13.07
2022-12-16T11:26:13.639Z,12.57
2022-12-16T11:29:40.597Z,17.15
2022-12-16T11:33:12.480Z,16.95
2022-12-16T11:36:40.374Z,14.27
2022-12-16T11:40:03.584Z,15.70
2022-12-16T11:43:30.572Z,15.18
2022-12-16T11:46:54.145Z,18.30
2022-12-16T11:50:18.922Z,18.58
2022-12-16T11:54:12.647Z,22.88
2022-12-16T11:57:47.548Z,24.55
2022-12-16T12:01:38.753Z,19.73
2022-12-16T12:05:09.204Z,20.77
2022-12-16T12:09:12.521Z,22.27
2022-12-16T12:13:11.570Z,26.40
2022-12-16T12:17:01.792Z,25.10
2022-12-16T12:20:45.376Z,27.25
2022-12-16T12:24:43.317Z,20.95
2022-12-16T12:28:22.075Z,20.42
2022-12-16T12:32:08.252Z,23.42
2022-12-16T12:36:09.070Z,19.38
2022-12-16T12:39:57.635Z,20.63
2022-12-16T12:43:32.026Z,20.92
2022-12-16T12:47:04.479Z,25.25
2022-12-16T12:51:00.385Z,23.52
2022-12-16T12:54:54.531Z,23.35
2022-12-16T12:58:18.844Z,21.25
2022-12-16T13:01:48.081Z,20.75
2022-12-16T13:05:11.624Z,19.42
2022-12-16T13:09:16.322Z,21.02
2022-12-16T13:12:47.844Z,17.98
2022-12-16T13:16:10.730Z,20.58
2022-12-16T13:19:48.757Z,21.00
2022-12-16T13:23:11.442Z,20.48
2022-12-16T13:26:38.262Z,18.30
2022-12-16T13:30:41.465Z,18.55
2022-12-16T13:34:10.706Z,17.30
2022-12-16T13:37:45.758Z,17.88
2022-12-16T13:41:23.361Z,18.17
2022-12-16T13:45:01.432Z,17.25
2022-12-16T13:48:48.268Z,15.95
2022-12-16T13:52:17.927Z,18.95
2022-12-16T13:55:59.276Z,17.85
2022-12-16T13:59:37.748Z,17.77
2022-12-16T14:03:02.163Z,16.48
2022-12-16T14:06:36.874Z,17.50
2022-12-16T14:10:03.073Z,19.48
2022-12-16T14:13:56.093Z,19.95
2022-12-16T14:17:23.842Z,21.73
2022-12-16T14:20:55.441Z,20.45
2022-12-16T14:24:39.286Z,17.30
2022-12-16T14:28:03.275Z,20.17
2022-12-16T14:31:46.368Z,20.95
2022-12-16T14:35:20.802Z,17.88
2022-12-16T14:38:49.453Z,20.45
2022-12-16T14:42:12.875Z,20.98
2022-12-16T14:45:44.838Z,19.98
2022-12-16T14:49:09.346Z,21.77
2022-12-16T14:52:45.486Z,22.83
2022-12-16T14:56:08.509Z,19.67
2022-12-16T14:59:37.650Z,26.50
2022-12-16T15:03:03.778Z,35.72
2022-12-16T15:06:36.399Z,32.25
2022-12-16T15:10:05.394Z,35.63
2022-12-16T15:13:37.468Z,41.25
2022-12-16T15:17:01.504Z,33.28
2022-12-16T15:20:35.509Z,34.60
2022-12-16T15:24:01.896Z,34.90
2022-12-16T15:27:40.082Z,36.50
2022-12-16T15:31:05.548Z,38.40
2022-12-16T15:34:49.293Z,33.97
2022-12-16T15:38:12.272Z,40.40
2022-12-16T15:41:53.914Z,36.22
2022-12-16T15:45:16.701Z,32.60
2022-12-16T15:48:48.028Z,35.50
2022-12-16T15:52:11.197Z,36.13
2022-12-16T15:56:04.157Z,32.25
2022-12-16T15:59:49.992Z,40.38
2022-12-16T16:03:13.157Z,40.65
2022-12-16T16:06:41.632Z,42.65
2022-12-16T16:10:04.428Z,41.67
2022-12-16T16:13:28.983Z,41.03
2022-12-16T16:16:51.652Z,40.47
2022-12-16T16:20:14.164Z,46.25
2022-12-16T16:23:37.368Z,40.80
2022-12-16T16:27:01.031Z,41.25
2022-12-16T16:30:24.766Z,49.50
2022-12-16T16:33:47.481Z,38.83
2022-12-16T16:37:16.496Z,37.90
2022-12-16T16:41:01.094Z,39.92
2022-12-16T16:44:23.969Z,45.08
2022-12-16T16:47:46.929Z,48.90
2022-12-16T16:51:13.760Z,36.50
2022-12-16T16:54:36.581Z,45.80
2022-12-16T16:57:59.636Z,38.90
2022-12-16T17:01:23.140Z,58.83
2022-12-16T17:04:46.638Z,47.33
2022-12-16T17:08:09.337Z,46.08
2022-12-16T17:11:37.859Z,44.38
2022-12-16T17:15:00.530Z,53.40
2022-12-16T17:18:24.223Z,46.88
2022-12-16T17:21:47.066Z,42.88
2022-12-16T17:25:10.119Z,41.67
2022-12-16T17:28:33.083Z,40.95
2022-12-16T17:31:57.046Z,47.92
2022-12-16T17:35:20.158Z,45.55
2022-12-16T17:38:43.325Z,42.90
2022-12-16T17:42:06.753Z,48.35
2022-12-16T17:45:29.598Z,42.45
2022-12-16T17:48:52.314Z,43.70
2022-12-16T17:52:14.960Z,39.63
2022-12-16T17:55:38.005Z,43.05
2022-12-16T17:59:01.327Z,46.60
2022-12-16T18:02:24.451Z,45.13
2022-12-16T18:05:47.672Z,47.40
2022-12-16T18:09:10.914Z,38.67
2022-12-16T18:12:34.339Z,44.37
2022-12-16T18:15:57.676Z,38.03
2022-12-16T18:19:20.755Z,41.03
2022-12-16T18:22:43.948Z,39.58
2022-12-16T18:26:29.188Z,40.40
2022-12-16T18:29:51.944Z,44.05
2022-12-16T18:33:15.112Z,39.28
2022-12-16T18:36:37.952Z,42.03
2022-12-16T18:40:00.783Z,42.78
2022-12-16T18:43:23.641Z,39.53
2022-12-16T18:46:46.598Z,38.00
2022-12-16T18:50:09.567Z,36.35
2022-12-16T18:53:32.755Z,36.25
2022-12-16T18:56:56.090Z,43.13
2022-12-16T19:00:19.103Z,39.50
2022-12-16T19:03:42.663Z,37.28
2022-12-16T19:07:05.759Z,34.80
2022-12-16T19:10:29.554Z,39.67
2022-12-16T19:13:53.001Z,38.22
2022-12-16T19:17:16.534Z,42.88
2022-12-16T19:20:39.451Z,42.88
2022-12-16T19:24:02.737Z,47.03
2022-12-16T19:27:25.775Z,40.47
2022-12-16T19:30:49.506Z,41.00
2022-12-16T19:34:14.234Z,38.65
2022-12-16T19:37:37.324Z,39.13
2022-12-16T19:41:12.936Z,36.45
2022-12-16T19:44:35.830Z,35.22
2022-12-16T19:47:59.805Z,37.53
2022-12-16T19:51:26.088Z,39.08
2022-12-16T19:54:48.645Z,42.65
2022-12-16T19:58:11.787Z,41.58
2022-12-16T20:01:34.683Z,40.95
2022-12-16T20:04:58.148Z,36.88
2022-12-16T20:08:22.008Z,35.28
2022-12-16T20:11:44.780Z,34.20
2022-12-16T20:15:07.507Z,31.50
2022-12-16T20:18:30.431Z,35.67
2022-12-16T20:21:56.297Z,35.90
2022-12-16T20:25:19.580Z,34.65
2022-12-16T20:28:42.532Z,40.50
2022-12-16T20:32:05.340Z,36.97
2022-12-16T20:35:28.239Z,34.83
2022-12-16T20:38:52.939Z,40.55
2022-12-16T20:42:16.371Z,39.30
2022-12-16T20:45:39.819Z,36.13
2022-12-16T20:49:05.133Z,36.70
2022-12-16T20:52:48.481Z,31.17
2022-12-16T20:56:11.804Z,35.95
2022-12-16T20:59:35.160Z,38.72
2022-12-16T21:02:58.128Z,31.13
2022-12-16T21:06:23.677Z,33.80
2022-12-16T21:09:57.035Z,25.23
2022-12-16T21:13:33.397Z,32.95
2022-12-16T21:16:56.317Z,33.33
2022-12-16T21:20:19.454Z,32.90
2022-12-16T21:23:42.818Z,32.92
2022-12-16T21:27:06.378Z,35.40
2022-12-16T21:30:30.302Z,24.95
2022-12-16T21:33:53.920Z,36.78
2022-12-16T21:37:18.746Z,35.50
2022-12-16T21:40:42.265Z,41.33
2022-12-16T21:44:05.400Z,34.08
2022-12-16T21:47:28.891Z,48.22
2022-12-16T21:50:52.338Z,75.25
2022-12-16T21:57:39.978Z,41.20
2022-12-16T22:01:16.978Z,40.88
2022-12-16T22:04:40.363Z,45.42
2022-12-16T22:08:04.299Z,39.17
2022-12-16T22:11:32.472Z,36.70
2022-12-16T22:18:38.311Z,35.38
2022-12-16T22:22:01.100Z,35.38
2022-12-16T22:25:24.383Z,34.28
2022-12-16T22:28:47.214Z,38.63
2022-12-16T22:32:10.090Z,38.17
2022-12-16T22:35:33.503Z,35.50
2022-12-16T22:38:56.987Z,39.53
2022-12-16T22:42:20.132Z,37.22
2022-12-16T22:45:43.484Z,30.95
2022-12-16T22:49:06.930Z,36.03
2022-12-16T22:52:29.669Z,36.00
2022-12-16T22:55:56.167Z,29.77
2022-12-16T22:59:23.150Z,30.48
2022-12-16T23:02:46.131Z,32.90
2022-12-16T23:06:09.560Z,33.90
2022-12-16T23:09:32.765Z,32.08
2022-12-16T23:12:56.425Z,28.98
2022-12-16T23:16:19.820Z,34.30
2022-12-16T23:19:42.704Z,28.90
2022-12-16T23:23:05.604Z,32.80
2022-12-16T23:26:29.085Z,31.02
2022-12-16T23:29:51.798Z,35.17
2022-12-16T23:32:30.619Z,34.13
2022-12-16T23:33:30.804Z,31.48
2022-12-16T23:36:55.110Z,34.03
2022-12-16T23:40:19.984Z,29.15
2022-12-16T23:43:43.150Z,28.30
2022-12-16T23:47:06.503Z,34.63
2022-12-16T23:50:30.319Z,29.95
2022-12-16T23:53:53.101Z,30.55
2022-12-16T23:57:39.219Z,30.38
